createdAt,value
2019-05-23T00:00:31.403Z,996.81
2019-05-23T00:01:31.389Z,996.83
2019-05-23T00:02:31.369Z,996.79
2019-05-23T00:03:31.349Z,996.81
2019-05-23T00:04:31.342Z,996.79
2019-05-23T00:05:31.322Z,996.81
2019-05-23T00:06:31.300Z,996.80
2019-05-23T00:07:31.284Z,996.78
2019-05-23T00:08:31.263Z,996.78
2019-05-23T00:09:31.275Z,996.77
2019-05-23T00:10:31.230Z,996.79
2019-05-23T00:11:31.208Z,996.82
2019-05-23T00:12:31.196Z,996.77
2019-05-23T00:13:31.174Z,996.77
2019-05-23T00:14:31.159Z,996.78
2019-05-23T00:15:31.143Z,996.78
2019-05-23T00:16:31.122Z,996.76
2019-05-23T00:17:31.114Z,996.78
2019-05-23T00:18:31.085Z,996.79
2019-05-23T00:19:31.069Z,996.77
2019-05-23T00:20:31.059Z,996.78
2019-05-23T00:21:31.035Z,996.78
2019-05-23T00:22:31.029Z,996.76
2019-05-23T00:23:31.002Z,996.73
2019-05-23T00:24:30.979Z,996.76
2019-05-23T00:25:30.964Z,996.72
2019-05-23T00:26:30.946Z,996.73
2019-05-23T00:27:30.944Z,996.71
2019-05-23T00:28:30.911Z,996.74
2019-05-23T00:29:30.894Z,996.73
2019-05-23T00:30:30.872Z,996.67
2019-05-23T00:31:30.857Z,996.68
2019-05-23T00:32:30.838Z,996.64
2019-05-23T00:33:30.821Z,996.67
2019-05-23T00:34:30.803Z,996.67
2019-05-23T00:35:30.793Z,996.67
2019-05-23T00:36:30.782Z,996.66
2019-05-23T00:37:30.748Z,996.65
2019-05-23T00:38:30.750Z,996.65
2019-05-23T00:39:30.752Z,996.62
2019-05-23T00:40:30.706Z,996.64
2019-05-23T00:41:30.682Z,996.62
2019-05-23T00:42:30.673Z,996.59
2019-05-23T00:43:30.649Z,996.61
2019-05-23T00:44:30.626Z,996.65
2019-05-23T00:45:30.612Z,996.61
2019-05-23T00:46:30.593Z,996.60
2019-05-23T00:47:30.571Z,996.61
2019-05-23T00:48:30.556Z,996.59
2019-05-23T00:49:30.538Z,996.57
2019-05-23T00:50:30.556Z,996.58
2019-05-23T00:51:30.505Z,996.60
2019-05-23T00:52:30.498Z,996.55
2019-05-23T00:53:30.481Z,996.57
2019-05-23T00:54:30.451Z,996.54
2019-05-23T00:55:30.440Z,996.60
2019-05-23T00:56:30.445Z,996.56
2019-05-23T00:57:30.400Z,996.59
2019-05-23T00:58:30.384Z,996.54
2019-05-23T00:59:30.372Z,996.54
2019-05-23T01:00:30.372Z,996.54
2019-05-23T01:01:30.329Z,996.56
2019-05-23T01:02:30.305Z,996.58
2019-05-23T01:03:30.300Z,996.58
2019-05-23T01:04:30.275Z,996.57
2019-05-23T01:05:30.258Z,996.59
2019-05-23T01:06:30.238Z,996.55
2019-05-23T01:07:30.228Z,996.55
2019-05-23T01:08:30.204Z,996.54
2019-05-23T01:09:30.185Z,996.52
2019-05-23T01:10:30.172Z,996.56
2019-05-23T01:11:30.151Z,996.55
2019-05-23T01:12:30.127Z,996.54
2019-05-23T01:13:30.116Z,996.56
2019-05-23T01:14:30.099Z,996.52
2019-05-23T01:15:30.077Z,996.53
2019-05-23T01:16:30.170Z,996.55
2019-05-23T01:17:30.048Z,996.54
2019-05-23T01:18:30.018Z,996.54
2019-05-23T01:19:30.008Z,996.53
2019-05-23T01:20:29.984Z,996.55
2019-05-23T01:21:29.967Z,996.53
2019-05-23T01:22:29.953Z,996.55
2019-05-23T01:23:29.948Z,996.54
2019-05-23T01:24:29.918Z,996.56
2019-05-23T01:25:29.908Z,996.55
2019-05-23T01:26:29.886Z,996.56
2019-05-23T01:27:29.864Z,996.56
2019-05-23T01:28:29.845Z,996.55
2019-05-23T01:29:37.475Z,996.55
2019-05-23T01:30:29.816Z,996.57
2019-05-23T01:31:29.806Z,996.54
2019-05-23T01:32:29.770Z,996.57
2019-05-23T01:33:29.758Z,996.58
2019-05-23T01:34:29.762Z,996.55
2019-05-23T01:35:29.716Z,996.57
2019-05-23T01:36:29.707Z,996.58
2019-05-23T01:37:29.684Z,996.56
2019-05-23T01:38:29.667Z,996.55
2019-05-23T01:39:29.653Z,996.55
2019-05-23T01:40:29.671Z,996.60
2019-05-23T01:41:29.618Z,996.58
2019-05-23T01:42:29.591Z,996.58
2019-05-23T01:43:29.578Z,996.58
2019-05-23T01:44:29.582Z,996.60
2019-05-23T01:45:29.540Z,996.65
2019-05-23T01:46:29.539Z,996.63
2019-05-23T01:47:29.530Z,996.62
2019-05-23T01:48:29.491Z,996.60
2019-05-23T01:49:29.470Z,996.60
2019-05-23T01:50:29.458Z,996.59
2019-05-23T01:51:29.437Z,996.57
2019-05-23T01:52:29.422Z,996.55
2019-05-23T01:53:29.416Z,996.58
2019-05-23T01:54:29.433Z,996.59
2019-05-23T01:55:29.372Z,996.59
2019-05-23T01:56:29.344Z,996.56
2019-05-23T01:57:29.330Z,996.56
2019-05-23T01:58:29.308Z,996.62
2019-05-23T01:59:29.299Z,996.56
2019-05-23T02:00:29.279Z,996.57
2019-05-23T02:01:29.260Z,996.57
2019-05-23T02:02:29.280Z,996.55
2019-05-23T02:03:29.231Z,996.55
2019-05-23T02:04:29.205Z,996.57
2019-05-23T02:05:29.186Z,996.53
2019-05-23T02:06:29.168Z,996.54
2019-05-23T02:07:29.150Z,996.57
2019-05-23T02:08:29.135Z,996.54
2019-05-23T02:09:29.135Z,996.53
2019-05-23T02:10:29.093Z,996.51
2019-05-23T02:11:29.086Z,996.52
2019-05-23T02:12:29.058Z,996.50
2019-05-23T02:13:29.048Z,996.50
2019-05-23T02:14:29.029Z,996.53
2019-05-23T02:15:29.012Z,996.51
2019-05-23T02:16:28.991Z,996.51
2019-05-23T02:17:28.967Z,996.52
2019-05-23T02:18:28.944Z,996.49
2019-05-23T02:19:28.936Z,996.51
2019-05-23T02:20:28.916Z,996.55
2019-05-23T02:21:28.901Z,996.53
2019-05-23T02:22:28.883Z,996.53
2019-05-23T02:23:28.949Z,996.53
2019-05-23T02:24:28.849Z,996.49
2019-05-23T02:25:28.834Z,996.52
2019-05-23T02:26:28.811Z,996.49
2019-05-23T02:27:28.790Z,996.50
2019-05-23T02:28:28.769Z,996.48
2019-05-23T02:29:28.756Z,996.47
2019-05-23T02:30:34.762Z,996.47
2019-05-23T02:31:28.719Z,996.43
2019-05-23T02:32:28.705Z,996.50
2019-05-23T02:33:28.719Z,996.50
2019-05-23T02:34:28.669Z,996.47
2019-05-23T02:35:28.648Z,996.55
2019-05-23T02:36:28.634Z,996.54
2019-05-23T02:37:28.625Z,996.53
2019-05-23T02:38:28.596Z,996.54
2019-05-23T02:39:28.570Z,996.54
2019-05-23T02:40:28.561Z,996.56
2019-05-23T02:41:28.538Z,996.58
2019-05-23T02:42:28.521Z,996.56
2019-05-23T02:43:28.516Z,996.58
2019-05-23T02:44:28.510Z,996.58
2019-05-23T02:45:28.465Z,996.54
2019-05-23T02:46:28.474Z,996.54
2019-05-23T02:47:28.429Z,996.53
2019-05-23T02:48:28.424Z,996.56
2019-05-23T02:49:28.392Z,996.52
2019-05-23T02:50:28.373Z,996.55
2019-05-23T02:51:28.369Z,996.54
2019-05-23T02:52:28.334Z,996.54
2019-05-23T02:53:28.320Z,996.58
2019-05-23T02:54:28.311Z,996.54
2019-05-23T02:55:28.286Z,996.55
2019-05-23T02:56:28.279Z,996.55
2019-05-23T02:57:28.254Z,996.55
2019-05-23T02:58:28.233Z,996.53
2019-05-23T02:59:28.212Z,996.52
2019-05-23T03:00:28.193Z,996.49
2019-05-23T03:01:28.175Z,996.49
2019-05-23T03:02:28.160Z,996.49
2019-05-23T03:03:28.159Z,996.51
2019-05-23T03:04:28.129Z,996.50
2019-05-23T03:05:28.119Z,996.49
2019-05-23T03:06:28.098Z,996.49
2019-05-23T03:07:28.066Z,996.45
2019-05-23T03:08:28.068Z,996.46
2019-05-23T03:09:28.060Z,996.47
2019-05-23T03:10:28.018Z,996.48
2019-05-23T03:11:27.994Z,996.52
2019-05-23T03:12:27.980Z,996.48
2019-05-23T03:13:27.972Z,996.49
2019-05-23T03:14:27.939Z,996.47
2019-05-23T03:15:27.918Z,996.49
2019-05-23T03:16:27.905Z,996.44
2019-05-23T03:17:27.880Z,996.50
2019-05-23T03:18:27.866Z,996.51
2019-05-23T03:19:27.843Z,996.54
2019-05-23T03:20:27.830Z,996.54
2019-05-23T03:21:27.827Z,996.51
2019-05-23T03:22:27.796Z,996.50
2019-05-23T03:23:27.776Z,996.51
2019-05-23T03:24:27.761Z,996.52
2019-05-23T03:25:27.738Z,996.52
2019-05-23T03:26:27.722Z,996.49
2019-05-23T03:27:27.703Z,996.49
2019-05-23T03:28:27.690Z,996.51
2019-05-23T03:29:27.660Z,996.48
2019-05-23T03:30:27.673Z,996.50
2019-05-23T03:31:31.531Z,996.51
2019-05-23T03:32:27.611Z,996.48
2019-05-23T03:33:27.603Z,996.48
2019-05-23T03:34:27.588Z,996.46
2019-05-23T03:35:27.558Z,996.49
2019-05-23T03:36:27.552Z,996.48
2019-05-23T03:37:27.548Z,996.47
2019-05-23T03:38:27.520Z,996.49
2019-05-23T03:39:27.490Z,996.50
2019-05-23T03:40:27.460Z,996.48
2019-05-23T03:41:27.449Z,996.50
2019-05-23T03:42:27.427Z,996.49
2019-05-23T03:43:27.419Z,996.49
2019-05-23T03:44:27.386Z,996.44
2019-05-23T03:45:27.374Z,996.47
2019-05-23T03:46:27.367Z,996.44
2019-05-23T03:47:27.340Z,996.40
2019-05-23T03:48:27.322Z,996.45
2019-05-23T03:49:27.302Z,996.45
2019-05-23T03:50:27.302Z,996.43
2019-05-23T03:51:27.277Z,996.46
2019-05-23T03:52:27.243Z,996.44
2019-05-23T03:53:27.231Z,996.45
2019-05-23T03:54:27.229Z,996.45
2019-05-23T03:55:27.197Z,996.43
2019-05-23T03:56:27.180Z,996.41
2019-05-23T03:57:27.150Z,996.44
2019-05-23T03:58:27.143Z,996.45
2019-05-23T03:59:27.119Z,996.44
2019-05-23T04:00:27.105Z,996.42
2019-05-23T04:01:46.012Z,996.41
2019-05-23T04:02:27.166Z,996.44
2019-05-23T04:03:27.044Z,996.40
2019-05-23T04:04:27.025Z,996.42
2019-05-23T04:05:27.029Z,996.40
2019-05-23T04:06:26.999Z,996.41
2019-05-23T04:07:26.970Z,996.40
2019-05-23T04:08:26.962Z,996.44
2019-05-23T04:09:26.938Z,996.40
2019-05-23T04:10:26.919Z,996.44
2019-05-23T04:11:26.896Z,996.43
2019-05-23T04:12:26.884Z,996.40
2019-05-23T04:13:26.883Z,996.43
2019-05-23T04:14:26.847Z,996.41
2019-05-23T04:15:26.823Z,996.43
2019-05-23T04:16:30.407Z,996.45
2019-05-23T04:17:26.795Z,996.44
2019-05-23T04:18:26.778Z,996.44
2019-05-23T04:19:26.756Z,996.45
2019-05-23T04:20:26.738Z,996.44
2019-05-23T04:21:26.741Z,996.45
2019-05-23T04:22:26.727Z,996.45
2019-05-23T04:23:26.684Z,996.45
2019-05-23T04:24:26.661Z,996.45
2019-05-23T04:25:26.653Z,996.47
2019-05-23T04:26:26.629Z,996.45
2019-05-23T04:27:26.613Z,996.45
2019-05-23T04:28:26.599Z,996.46
2019-05-23T04:29:26.577Z,996.49
2019-05-23T04:30:26.561Z,996.51
2019-05-23T04:31:26.550Z,996.50
2019-05-23T04:32:26.521Z,996.51
2019-05-23T04:33:26.498Z,996.52
2019-05-23T04:34:26.481Z,996.53
2019-05-23T04:35:26.476Z,996.51
2019-05-23T04:36:26.458Z,996.54
2019-05-23T04:37:26.434Z,996.58
2019-05-23T04:38:26.416Z,996.56
2019-05-23T04:39:26.401Z,996.61
2019-05-23T04:40:26.377Z,996.59
2019-05-23T04:41:26.363Z,996.59
2019-05-23T04:42:26.351Z,996.61
2019-05-23T04:43:26.324Z,996.59
2019-05-23T04:44:26.312Z,996.55
2019-05-23T04:45:26.301Z,996.56
2019-05-23T04:46:26.277Z,996.59
2019-05-23T04:47:26.257Z,996.55
2019-05-23T04:48:26.241Z,996.56
2019-05-23T04:49:26.220Z,996.57
2019-05-23T04:50:26.200Z,996.58
2019-05-23T04:51:26.200Z,996.52
2019-05-23T04:52:26.164Z,996.55
2019-05-23T04:53:26.153Z,996.52
2019-05-23T04:54:26.134Z,996.55
2019-05-23T04:55:26.108Z,996.50
2019-05-23T04:56:26.110Z,996.52
2019-05-23T04:57:26.088Z,996.53
2019-05-23T04:58:26.056Z,996.54
2019-05-23T04:59:26.042Z,996.51
2019-05-23T05:00:26.031Z,996.50
2019-05-23T05:01:26.009Z,996.50
2019-05-23T05:02:27.154Z,996.51
2019-05-23T05:03:26.017Z,996.48
2019-05-23T05:04:25.960Z,996.50
2019-05-23T05:05:25.946Z,996.53
2019-05-23T05:06:25.935Z,996.53
2019-05-23T05:07:25.914Z,996.52
2019-05-23T05:08:25.895Z,996.52
2019-05-23T05:09:25.882Z,996.53
2019-05-23T05:10:25.867Z,996.53
2019-05-23T05:11:30.240Z,996.56
2019-05-23T05:12:25.827Z,996.55
2019-05-23T05:13:25.811Z,996.50
2019-05-23T05:14:25.792Z,996.54
2019-05-23T05:15:25.774Z,996.55
2019-05-23T05:16:25.754Z,996.52
2019-05-23T05:17:25.738Z,996.54
2019-05-23T05:18:25.723Z,996.55
2019-05-23T05:19:25.703Z,996.54
2019-05-23T05:20:25.690Z,996.55
2019-05-23T05:21:25.680Z,996.60
2019-05-23T05:22:25.659Z,996.57
2019-05-23T05:23:25.643Z,996.61
2019-05-23T05:24:25.632Z,996.59
2019-05-23T05:25:25.610Z,996.60
2019-05-23T05:26:25.601Z,996.61
2019-05-23T05:27:25.579Z,996.59
2019-05-23T05:28:25.562Z,996.61
2019-05-23T05:29:25.546Z,996.55
2019-05-23T05:30:25.530Z,996.59
2019-05-23T05:31:25.513Z,996.60
2019-05-23T05:32:41.457Z,996.59
2019-05-23T05:33:25.495Z,996.59
2019-05-23T05:34:25.492Z,996.59
2019-05-23T05:35:25.449Z,996.62
2019-05-23T05:36:25.433Z,996.62
2019-05-23T05:37:25.418Z,996.63
2019-05-23T05:38:28.574Z,996.58
2019-05-23T05:39:25.397Z,996.64
2019-05-23T05:40:25.369Z,996.62
2019-05-23T05:41:25.354Z,996.67
2019-05-23T05:42:25.337Z,996.64
2019-05-23T05:43:25.322Z,996.69
2019-05-23T05:44:25.333Z,996.69
2019-05-23T05:45:25.287Z,996.71
2019-05-23T05:46:25.276Z,996.69
2019-05-23T05:47:25.254Z,996.71
2019-05-23T05:48:25.261Z,996.75
2019-05-23T05:49:25.312Z,996.71
2019-05-23T05:50:25.223Z,996.74
2019-05-23T05:51:25.194Z,996.74
2019-05-23T05:52:25.180Z,996.76
2019-05-23T05:53:25.170Z,996.77
2019-05-23T05:54:25.150Z,996.74
2019-05-23T05:55:25.134Z,996.76
2019-05-23T05:56:25.115Z,996.75
2019-05-23T05:57:25.104Z,996.81
2019-05-23T05:58:25.093Z,996.77
2019-05-23T05:59:25.068Z,996.81
2019-05-23T06:00:25.062Z,996.84
2019-05-23T06:01:33.971Z,996.82
2019-05-23T06:02:25.032Z,996.79
2019-05-23T06:03:25.010Z,996.80
2019-05-23T06:04:25.000Z,996.80
2019-05-23T06:05:24.979Z,996.83
2019-05-23T06:06:24.958Z,996.84
2019-05-23T06:07:24.944Z,996.86
2019-05-23T06:08:24.948Z,996.84
2019-05-23T06:09:24.910Z,996.86
2019-05-23T06:10:24.905Z,996.86
2019-05-23T06:11:24.898Z,996.84
2019-05-23T06:12:24.870Z,996.86
2019-05-23T06:13:24.854Z,996.89
2019-05-23T06:14:24.840Z,996.86
2019-05-23T06:15:24.824Z,996.85
2019-05-23T06:16:24.974Z,996.84
2019-05-23T06:17:24.840Z,996.85
2019-05-23T06:18:24.781Z,996.86
2019-05-23T06:19:24.760Z,996.85
2019-05-23T06:20:24.742Z,996.81
2019-05-23T06:21:24.736Z,996.84
2019-05-23T06:22:24.720Z,996.89
2019-05-23T06:23:24.707Z,996.88
2019-05-23T06:24:41.491Z,996.86
2019-05-23T06:25:24.693Z,996.89
2019-05-23T06:26:24.660Z,996.90
2019-05-23T06:27:24.656Z,996.90
2019-05-23T06:28:24.645Z,996.93
2019-05-23T06:29:25.240Z,996.92
2019-05-23T06:30:24.604Z,996.91
2019-05-23T06:31:24.591Z,996.93
2019-05-23T06:32:24.592Z,996.94
2019-05-23T06:33:24.644Z,996.90
2019-05-23T06:34:24.547Z,996.88
2019-05-23T06:35:24.537Z,996.90
2019-05-23T06:36:24.612Z,996.91
2019-05-23T06:37:24.504Z,996.91
2019-05-23T06:38:24.490Z,996.92
2019-05-23T06:39:24.478Z,996.90
2019-05-23T06:40:24.475Z,996.92
2019-05-23T06:41:24.449Z,996.90
2019-05-23T06:42:24.438Z,996.92
2019-05-23T06:43:24.444Z,996.95
2019-05-23T06:44:24.409Z,996.92
2019-05-23T06:45:24.396Z,996.99
2019-05-23T06:46:24.387Z,996.99
2019-05-23T06:47:24.364Z,996.96
2019-05-23T06:48:24.357Z,996.99
2019-05-23T06:49:24.341Z,996.99
2019-05-23T06:50:24.324Z,996.99
2019-05-23T06:51:24.313Z,996.95
2019-05-23T06:52:24.302Z,996.96
2019-05-23T06:53:24.287Z,996.99
2019-05-23T06:54:24.269Z,997.00
2019-05-23T06:55:24.255Z,996.95
2019-05-23T06:56:24.255Z,996.95
2019-05-23T06:57:24.310Z,996.91
2019-05-23T06:58:24.375Z,996.94
2019-05-23T06:59:24.216Z,996.97
2019-05-23T07:00:24.193Z,996.96
2019-05-23T07:01:24.178Z,996.97
2019-05-23T07:02:24.176Z,996.97
2019-05-23T07:03:40.710Z,997.00
2019-05-23T07:04:24.136Z,997.02
2019-05-23T07:05:24.122Z,996.98
2019-05-23T07:06:24.122Z,996.97
2019-05-23T07:07:24.100Z,997.04
2019-05-23T07:08:25.358Z,997.06
2019-05-23T07:09:24.083Z,997.03
2019-05-23T07:10:24.059Z,997.06
2019-05-23T07:11:24.064Z,997.05
2019-05-23T07:12:24.038Z,997.08
2019-05-23T07:13:24.029Z,997.06
2019-05-23T07:14:24.014Z,997.09
2019-05-23T07:15:23.999Z,997.09
2019-05-23T07:16:24.090Z,997.09
2019-05-23T07:17:23.976Z,997.14
2019-05-23T07:18:23.993Z,997.15
2019-05-23T07:19:23.946Z,997.15
2019-05-23T07:20:23.939Z,997.16
2019-05-23T07:21:23.955Z,997.16
2019-05-23T07:22:23.913Z,997.16
2019-05-23T07:23:23.907Z,997.20
2019-05-23T07:24:23.893Z,997.16
2019-05-23T07:25:23.884Z,997.17
2019-05-23T07:26:23.871Z,997.16
2019-05-23T07:27:23.861Z,997.15
2019-05-23T07:28:23.848Z,997.14
2019-05-23T07:29:23.836Z,997.12
2019-05-23T07:30:23.828Z,997.16
2019-05-23T07:31:23.833Z,997.19
2019-05-23T07:32:23.804Z,997.21
2019-05-23T07:33:23.793Z,997.23
2019-05-23T07:34:23.779Z,997.25
2019-05-23T07:35:23.771Z,997.25
2019-05-23T07:36:23.756Z,997.24
2019-05-23T07:37:23.742Z,997.25
2019-05-23T07:38:23.735Z,997.21
2019-05-23T07:39:23.723Z,997.28
2019-05-23T07:40:23.713Z,997.24
2019-05-23T07:41:23.701Z,997.22
2019-05-23T07:42:23.695Z,997.22
2019-05-23T07:43:23.683Z,997.24
2019-05-23T07:44:23.680Z,997.24
2019-05-23T07:45:23.673Z,997.21
2019-05-23T07:46:23.654Z,997.21
2019-05-23T07:47:23.646Z,997.18
2019-05-23T07:48:23.643Z,997.17
2019-05-23T07:49:23.646Z,997.15
2019-05-23T07:50:23.617Z,997.21
2019-05-23T07:51:23.609Z,997.19
2019-05-23T07:52:23.602Z,997.15
2019-05-23T07:53:23.593Z,997.20
2019-05-23T07:54:23.588Z,997.18
2019-05-23T07:55:23.581Z,997.14
2019-05-23T07:56:23.568Z,997.13
2019-05-23T07:57:23.556Z,997.14
2019-05-23T07:58:23.545Z,997.13
2019-05-23T07:59:23.538Z,997.13
2019-05-23T08:00:23.530Z,997.09
2019-05-23T08:01:23.522Z,997.08
2019-05-23T08:02:25.680Z,997.14
2019-05-23T08:03:23.504Z,997.05
2019-05-23T08:04:23.492Z,997.12
2019-05-23T08:05:23.500Z,997.08
2019-05-23T08:06:23.480Z,997.06
2019-05-23T08:07:23.473Z,997.03
2019-05-23T08:08:23.460Z,997.03
2019-05-23T08:09:23.459Z,997.01
2019-05-23T08:10:32.991Z,997.04
2019-05-23T08:11:23.438Z,997.04
2019-05-23T08:12:23.431Z,997.07
2019-05-23T08:13:23.417Z,997.07
2019-05-23T08:14:23.407Z,997.08
2019-05-23T08:15:23.408Z,997.08
2019-05-23T08:16:23.397Z,997.10
2019-05-23T08:17:23.391Z,997.08
2019-05-23T08:18:23.382Z,997.11
2019-05-23T08:19:23.373Z,997.10
2019-05-23T08:20:23.363Z,997.10
2019-05-23T08:21:23.361Z,997.09
2019-05-23T08:22:23.353Z,997.13
2019-05-23T08:23:23.345Z,997.09
2019-05-23T08:24:23.341Z,997.07
2019-05-23T08:25:23.332Z,997.08
2019-05-23T08:26:23.331Z,997.05
2019-05-23T08:27:23.319Z,997.11
2019-05-23T08:28:23.316Z,997.12
2019-05-23T08:29:26.082Z,997.14
2019-05-23T08:30:23.300Z,997.13
2019-05-23T08:31:23.297Z,997.12
2019-05-23T08:32:23.293Z,997.12
2019-05-23T08:33:23.281Z,997.11
2019-05-23T08:34:40.096Z,997.11
2019-05-23T08:35:23.273Z,997.12
2019-05-23T08:36:23.263Z,997.12
2019-05-23T08:37:23.259Z,997.09
2019-05-23T08:38:23.281Z,997.04
2019-05-23T08:39:23.246Z,997.04
2019-05-23T08:40:23.242Z,996.99
2019-05-23T08:41:23.234Z,997.02
2019-05-23T08:42:23.243Z,996.98
2019-05-23T08:43:23.223Z,997.04
2019-05-23T08:44:23.216Z,997.01
2019-05-23T08:45:23.213Z,997.02
2019-05-23T08:46:23.208Z,996.97
2019-05-23T08:47:23.200Z,996.97
2019-05-23T08:48:23.192Z,996.96
2019-05-23T08:49:23.186Z,996.92
2019-05-23T08:50:23.193Z,996.94
2019-05-23T08:51:23.179Z,996.93
2019-05-23T08:52:23.176Z,996.97
2019-05-23T08:53:23.170Z,996.90
2019-05-23T08:54:23.166Z,996.91
2019-05-23T08:55:23.158Z,996.94
2019-05-23T08:56:23.152Z,996.89
2019-05-23T08:57:23.155Z,996.88
2019-05-23T08:58:23.148Z,996.87
2019-05-23T08:59:23.141Z,996.87
2019-05-23T09:00:23.157Z,996.88
2019-05-23T09:01:23.126Z,996.87
2019-05-23T09:02:23.121Z,996.89
2019-05-23T09:03:23.120Z,996.87
2019-05-23T09:04:23.111Z,996.87
2019-05-23T09:05:23.107Z,996.79
2019-05-23T09:06:23.102Z,996.84
2019-05-23T09:07:23.099Z,996.82
2019-05-23T09:08:23.108Z,996.82
2019-05-23T09:09:29.633Z,996.80
2019-05-23T09:10:23.084Z,996.81
2019-05-23T09:11:23.094Z,996.80
2019-05-23T09:12:23.080Z,996.78
2019-05-23T09:13:23.085Z,996.79
2019-05-23T09:14:23.085Z,996.81
2019-05-23T09:15:23.069Z,996.82
2019-05-23T09:16:23.066Z,996.78
2019-05-23T09:17:23.065Z,996.83
2019-05-23T09:18:23.059Z,996.83
2019-05-23T09:19:23.158Z,996.82
2019-05-23T09:20:23.057Z,996.81
2019-05-23T09:21:23.042Z,996.76
2019-05-23T09:22:23.042Z,996.76
2019-05-23T09:23:23.034Z,996.76
2019-05-23T09:24:23.033Z,996.79
2019-05-23T09:25:23.034Z,996.79
2019-05-23T09:26:23.027Z,996.79
2019-05-23T09:27:23.023Z,996.79
2019-05-23T09:28:23.012Z,996.84
2019-05-23T09:29:23.016Z,996.84
2019-05-23T09:30:23.015Z,996.83
2019-05-23T09:31:23.007Z,996.83
2019-05-23T09:32:23.006Z,996.76
2019-05-23T09:33:23.002Z,996.79
2019-05-23T09:34:22.996Z,996.80
2019-05-23T09:35:22.989Z,996.77
2019-05-23T09:36:22.988Z,996.73
2019-05-23T09:37:22.979Z,996.77
2019-05-23T09:38:22.978Z,996.81
2019-05-23T09:39:22.971Z,996.80
2019-05-23T09:40:23.001Z,996.82
2019-05-23T09:41:22.963Z,996.74
2019-05-23T09:42:22.961Z,996.76
2019-05-23T09:43:22.953Z,996.76
2019-05-23T09:44:22.966Z,996.78
2019-05-23T09:45:22.947Z,996.72
2019-05-23T09:46:22.948Z,996.69
2019-05-23T09:47:22.940Z,996.70
2019-05-23T09:48:22.937Z,996.73
2019-05-23T09:49:22.933Z,996.77
2019-05-23T09:50:22.939Z,996.74
2019-05-23T09:51:22.924Z,996.75
2019-05-23T09:52:22.918Z,996.71
2019-05-23T09:53:22.915Z,996.69
2019-05-23T09:54:22.911Z,996.70
2019-05-23T09:55:22.903Z,996.74
2019-05-23T09:56:22.904Z,996.68
2019-05-23T09:57:22.897Z,996.62
2019-05-23T09:58:22.897Z,996.65
2019-05-23T09:59:22.929Z,996.63
2019-05-23T10:00:22.883Z,996.63
2019-05-23T10:01:22.880Z,996.61
2019-05-23T10:02:22.887Z,996.57
2019-05-23T10:03:22.881Z,996.59
2019-05-23T10:04:22.889Z,996.56
2019-05-23T10:05:40.957Z,996.56
2019-05-23T10:06:22.865Z,996.57
2019-05-23T10:07:22.867Z,996.54
2019-05-23T10:08:22.891Z,996.52
2019-05-23T10:09:22.863Z,996.52
2019-05-23T10:10:22.858Z,996.54
2019-05-23T10:11:22.848Z,996.49
2019-05-23T10:12:22.848Z,996.53
2019-05-23T10:13:37.758Z,996.52
2019-05-23T10:14:22.845Z,996.53
2019-05-23T10:15:22.838Z,996.51
2019-05-23T10:16:22.835Z,996.46
2019-05-23T10:17:22.938Z,996.49
2019-05-23T10:18:22.840Z,996.46
2019-05-23T10:19:22.831Z,996.47
2019-05-23T10:20:22.825Z,996.46
2019-05-23T10:21:22.821Z,996.47
2019-05-23T10:22:22.822Z,996.46
2019-05-23T10:23:22.815Z,996.47
2019-05-23T10:24:22.819Z,996.48
2019-05-23T10:25:22.814Z,996.45
2019-05-23T10:26:22.838Z,996.45
2019-05-23T10:27:22.806Z,996.45
2019-05-23T10:28:22.804Z,996.48
2019-05-23T10:29:22.814Z,996.47
2019-05-23T10:30:22.811Z,996.50
2019-05-23T10:31:22.799Z,996.48
2019-05-23T10:32:22.795Z,996.41
2019-05-23T10:33:22.798Z,996.47
2019-05-23T10:34:22.807Z,996.42
2019-05-23T10:35:22.793Z,996.39
2019-05-23T10:36:22.791Z,996.38
2019-05-23T10:37:22.794Z,996.36
2019-05-23T10:38:22.785Z,996.38
2019-05-23T10:39:22.782Z,996.35
2019-05-23T10:40:22.788Z,996.40
2019-05-23T10:41:22.783Z,996.38
2019-05-23T10:42:22.794Z,996.33
2019-05-23T10:43:22.784Z,996.36
2019-05-23T10:44:22.779Z,996.33
2019-05-23T10:45:22.775Z,996.35
2019-05-23T10:46:22.774Z,996.33
2019-05-23T10:47:22.773Z,996.26
2019-05-23T10:48:22.763Z,996.28
2019-05-23T10:49:22.773Z,996.26
2019-05-23T10:50:22.761Z,996.28
2019-05-23T10:51:22.805Z,996.27
2019-05-23T10:52:22.768Z,996.23
2019-05-23T10:53:22.759Z,996.22
2019-05-23T10:54:22.758Z,996.25
2019-05-23T10:55:22.763Z,996.17
2019-05-23T10:56:22.758Z,996.18
2019-05-23T10:57:22.766Z,996.16
2019-05-23T10:58:22.756Z,996.18
2019-05-23T10:59:22.756Z,996.15
2019-05-23T11:00:22.761Z,996.18
2019-05-23T11:01:22.771Z,996.16
2019-05-23T11:02:22.763Z,996.11
2019-05-23T11:03:22.756Z,996.11
2019-05-23T11:04:22.744Z,996.11
2019-05-23T11:05:22.748Z,996.08
2019-05-23T11:06:22.756Z,996.07
2019-05-23T11:07:22.748Z,996.07
2019-05-23T11:08:28.434Z,996.03
2019-05-23T11:09:36.536Z,996.05
2019-05-23T11:10:22.745Z,996.04
2019-05-23T11:11:22.831Z,996.03
2019-05-23T11:12:22.755Z,996.07
2019-05-23T11:13:22.758Z,996.04
2019-05-23T11:14:22.753Z,996.03
2019-05-23T11:15:22.750Z,996.06
2019-05-23T11:16:22.749Z,996.01
2019-05-23T11:17:22.743Z,995.96
2019-05-23T11:18:22.748Z,995.99
2019-05-23T11:19:22.744Z,995.98
2019-05-23T11:20:22.743Z,995.96
2019-05-23T11:21:22.755Z,995.97
2019-05-23T11:22:22.739Z,995.94
2019-05-23T11:23:22.744Z,995.93
2019-05-23T11:24:22.744Z,995.94
2019-05-23T11:25:22.794Z,995.94
2019-05-23T11:26:22.742Z,995.94
2019-05-23T11:27:22.740Z,995.93
2019-05-23T11:28:22.752Z,995.89
2019-05-23T11:29:22.730Z,995.91
2019-05-23T11:30:22.735Z,995.91
2019-05-23T11:31:22.734Z,995.93
2019-05-23T11:32:22.730Z,995.90
2019-05-23T11:33:22.734Z,995.92
2019-05-23T11:34:22.733Z,995.86
2019-05-23T11:35:22.730Z,995.89
2019-05-23T11:36:34.894Z,995.87
2019-05-23T11:37:22.746Z,995.88
2019-05-23T11:38:22.729Z,995.86
2019-05-23T11:39:22.870Z,995.87
2019-05-23T11:40:22.740Z,995.87
2019-05-23T11:41:22.729Z,995.86
2019-05-23T11:42:22.735Z,995.86
2019-05-23T11:43:22.722Z,995.84
2019-05-23T11:44:22.729Z,995.80
2019-05-23T11:45:22.717Z,995.79
2019-05-23T11:46:22.719Z,995.81
2019-05-23T11:47:22.720Z,995.85
2019-05-23T11:48:22.718Z,995.78
2019-05-23T11:49:22.713Z,995.83
2019-05-23T11:50:22.712Z,995.75
2019-05-23T11:51:25.565Z,995.78
2019-05-23T11:52:22.701Z,995.82
2019-05-23T11:53:22.701Z,995.83
2019-05-23T11:54:22.696Z,995.80
2019-05-23T11:55:22.709Z,995.80
2019-05-23T11:56:22.693Z,995.79
2019-05-23T11:57:22.695Z,995.80
2019-05-23T11:58:22.685Z,995.78
2019-05-23T11:59:22.682Z,995.78
2019-05-23T12:00:22.696Z,995.76
2019-05-23T12:01:22.674Z,995.75
2019-05-23T12:02:22.674Z,995.76
2019-05-23T12:03:22.749Z,995.72
2019-05-23T12:04:22.700Z,995.73
2019-05-23T12:05:22.660Z,995.69
2019-05-23T12:06:25.922Z,995.70
2019-05-23T12:07:22.659Z,995.70
2019-05-23T12:08:22.651Z,995.67
2019-05-23T12:09:22.678Z,995.66
2019-05-23T12:10:22.835Z,995.66
2019-05-23T12:11:22.637Z,995.63
2019-05-23T12:12:22.634Z,995.63
2019-05-23T12:13:22.642Z,995.61
2019-05-23T12:14:22.635Z,995.65
2019-05-23T12:15:22.634Z,995.64
2019-05-23T12:16:22.641Z,995.60
2019-05-23T12:17:22.630Z,995.59
2019-05-23T12:18:22.628Z,995.59
2019-05-23T12:19:22.627Z,995.57
2019-05-23T12:20:22.626Z,995.57
2019-05-23T12:21:22.652Z,995.56
2019-05-23T12:22:22.639Z,995.51
2019-05-23T12:23:22.618Z,995.50
2019-05-23T12:24:22.644Z,995.49
2019-05-23T12:25:23.643Z,995.48
2019-05-23T12:26:22.631Z,995.49
2019-05-23T12:27:22.618Z,995.50
2019-05-23T12:28:22.614Z,995.49